sensor_id;sensor_type;location;lat;lon;timestamp;temperature;humidity
5136;DHT22;2586;48.710;9.202;2023-04-06T00:01:20;1.10;99.90
5136;DHT22;2586;48.710;9.202;2023-04-06T00:03:46;0.90;99.90
5136;DHT22;2586;48.710;9.202;2023-04-06T00:06:11;0.80;99.90
5136;DHT22;2586;48.710;9.202;2023-04-06T00:08:37;0.70;99.90
5136;DHT22;2586;48.710;9.202;2023-04-06T00:11:02;0.60;99.90
5136;DHT22;2586;48.710;9.202;2023-04-06T00:13:28;0.60;99.90
5136;DHT22;2586;48.710;9.202;2023-04-06T00:15:54;0.70;99.90
5136;DHT22;2586;48.710;9.202;2023-04-06T00:18:19;0.70;99.90
5136;DHT22;2586;48.710;9.202;2023-04-06T00:20:45;0.70;99.90
5136;DHT22;2586;48.710;9.202;2023-04-06T00:23:11;0.60;99.90
5136;DHT22;2586;48.710;9.202;2023-04-06T00:25:36;0.60;1.00
5136;DHT22;2586;48.710;9.202;2023-04-06T00:28:02;0.60;99.90
5136;DHT22;2586;48.710;9.202;2023-04-06T00:30:28;0.70;99.90
5136;DHT22;2586;48.710;9.202;2023-04-06T00:32:54;0.70;99.90
5136;DHT22;2586;48.710;9.202;2023-04-06T00:35:20;0.70;1.00
5136;DHT22;2586;48.710;9.202;2023-04-06T00:37:47;0.60;99.90
5136;DHT22;2586;48.710;9.202;2023-04-06T00:40:13;0.60;1.00
5136;DHT22;2586;48.710;9.202;2023-04-06T00:42:39;0.60;1.00
5136;DHT22;2586;48.710;9.202;2023-04-06T00:45:05;0.40;1.00
5136;DHT22;2586;48.710;9.202;2023-04-06T00:47:30;0.40;1.00
5136;DHT22;2586;48.710;9.202;2023-04-06T00:49:56;0.40;1.00
5136;DHT22;2586;48.710;9.202;2023-04-06T00:52:22;0.40;1.00
5136;DHT22;2586;48.710;9.202;2023-04-06T00:54:49;0.40;1.00
5136;DHT22;2586;48.710;9.202;2023-04-06T00:57:15;0.40;1.00
5136;DHT22;2586;48.710;9.202;2023-04-06T00:59:41;0.50;1.00
5136;DHT22;2586;48.710;9.202;2023-04-06T01:02:08;0.40;1.00
5136;DHT22;2586;48.710;9.202;2023-04-06T01:04:34;0.40;1.00
5136;DHT22;2586;48.710;9.202;2023-04-06T01:07:00;0.40;1.00
5136;DHT22;2586;48.710;9.202;2023-04-06T01:09:28;0.40;1.00
5136;DHT22;2586;48.710;9.202;2023-04-06T01:11:55;0.40;1.00
5136;DHT22;2586;48.710;9.202;2023-04-06T01:14:21;0.50;1.00
5136;DHT22;2586;48.710;9.202;2023-04-06T01:16:47;0.50;1.00
5136;DHT22;2586;48.710;9.202;2023-04-06T01:19:13;0.50;1.00
5136;DHT22;2586;48.710;9.202;2023-04-06T01:21:40;0.60;1.00
5136;DHT22;2586;48.710;9.202;2023-04-06T01:24:07;0.50;1.00
5136;DHT22;2586;48.710;9.202;2023-04-06T01:26:33;0.50;1.00
5136;DHT22;2586;48.710;9.202;2023-04-06T01:28:59;0.60;1.00
5136;DHT22;2586;48.710;9.202;2023-04-06T01:31:25;0.40;1.00
5136;DHT22;2586;48.710;9.202;2023-04-06T01:33:51;0.20;1.00
5136;DHT22;2586;48.710;9.202;2023-04-06T01:36:17;0.10;1.00
5136;DHT22;2586;48.710;9.202;2023-04-06T01:38:43;0.10;1.00
5136;DHT22;2586;48.710;9.202;2023-04-06T01:41:09;0.00;21.30
5136;DHT22;2586;48.710;9.202;2023-04-06T01:43:35;0.00;33.90
5136;DHT22;2586;48.710;9.202;2023-04-06T01:46:00;0.10;80.20
5136;DHT22;2586;48.710;9.202;2023-04-06T01:48:26;0.10;1.00
5136;DHT22;2586;48.710;9.202;2023-04-06T01:50:53;0.10;27.90
5136;DHT22;2586;48.710;9.202;2023-04-06T01:53:18;0.10;1.00
5136;DHT22;2586;48.710;9.202;2023-04-06T01:55:44;0.00;20.60
5136;DHT22;2586;48.710;9.202;2023-04-06T01:58:10;0.10;1.00
5136;DHT22;2586;48.710;9.202;2023-04-06T02:00:36;0.00;1.00
5136;DHT22;2586;48.710;9.202;2023-04-06T02:03:01;0.00;1.00
5136;DHT22;2586;48.710;9.202;2023-04-06T02:05:30;0.00;2.20
5136;DHT22;2586;48.710;9.202;2023-04-06T02:07:55;0.00;1.00
5136;DHT22;2586;48.710;9.202;2023-04-06T02:10:22;-0.10;40.70
5136;DHT22;2586;48.710;9.202;2023-04-06T02:12:48;-0.10;99.90
5136;DHT22;2586;48.710;9.202;2023-04-06T02:15:14;-0.20;99.90
5136;DHT22;2586;48.710;9.202;2023-04-06T02:17:40;-0.30;99.90
5136;DHT22;2586;48.710;9.202;2023-04-06T02:20:07;-0.20;99.90
5136;DHT22;2586;48.710;9.202;2023-04-06T02:22:33;-0.20;99.90
5136;DHT22;2586;48.710;9.202;2023-04-06T02:24:59;-0.10;99.90
5136;DHT22;2586;48.710;9.202;2023-04-06T02:27:24;-0.10;1.00
5136;DHT22;2586;48.710;9.202;2023-04-06T02:29:50;-0.10;41.80
5136;DHT22;2586;48.710;9.202;2023-04-06T02:32:16;-0.10;58.20
5136;DHT22;2586;48.710;9.202;2023-04-06T02:34:41;0.00;99.70
5136;DHT22;2586;48.710;9.202;2023-04-06T02:37:07;-0.10;1.00
5136;DHT22;2586;48.710;9.202;2023-04-06T02:39:32;0.00;1.00
5136;DHT22;2586;48.710;9.202;2023-04-06T02:41:58;0.00;1.00
5136;DHT22;2586;48.710;9.202;2023-04-06T02:44:24;-0.10;47.10
5136;DHT22;2586;48.710;9.202;2023-04-06T02:46:49;-0.10;99.90
5136;DHT22;2586;48.710;9.202;2023-04-06T02:49:16;-0.20;99.90
5136;DHT22;2586;48.710;9.202;2023-04-06T02:51:41;-0.30;99.90
5136;DHT22;2586;48.710;9.202;2023-04-06T02:54:07;-0.40;99.90
5136;DHT22;2586;48.710;9.202;2023-04-06T02:56:33;-0.40;99.90
5136;DHT22;2586;48.710;9.202;2023-04-06T02:58:58;-0.60;99.90
5136;DHT22;2586;48.710;9.202;2023-04-06T03:01:24;-0.60;1.00
5136;DHT22;2586;48.710;9.202;2023-04-06T03:03:49;-0.60;1.00
5136;DHT22;2586;48.710;9.202;2023-04-06T03:06:15;-0.60;1.00
5136;DHT22;2586;48.710;9.202;2023-04-06T03:08:41;-0.60;1.00
5136;DHT22;2586;48.710;9.202;2023-04-06T03:11:06;-0.60;1.00
5136;DHT22;2586;48.710;9.202;2023-04-06T03:13:32;-0.60;99.90
5136;DHT22;2586;48.710;9.202;2023-04-06T03:15:57;-0.50;1.00
5136;DHT22;2586;48.710;9.202;2023-04-06T03:18:24;-0.50;99.90
5136;DHT22;2586;48.710;9.202;2023-04-06T03:20:50;-0.40;99.90
5136;DHT22;2586;48.710;9.202;2023-04-06T03:23:16;-0.50;99.90
5136;DHT22;2586;48.710;9.202;2023-04-06T03:25:42;-0.60;99.90
5136;DHT22;2586;48.710;9.202;2023-04-06T03:28:07;-0.50;99.90
5136;DHT22;2586;48.710;9.202;2023-04-06T03:30:34;-0.60;99.90
5136;DHT22;2586;48.710;9.202;2023-04-06T03:33:00;-0.70;99.90
5136;DHT22;2586;48.710;9.202;2023-04-06T03:35:25;-0.70;99.90
5136;DHT22;2586;48.710;9.202;2023-04-06T03:37:51;-0.80;1.00
5136;DHT22;2586;48.710;9.202;2023-04-06T03:40:16;-0.90;1.00
5136;DHT22;2586;48.710;9.202;2023-04-06T03:42:42;-1.00;1.00
5136;DHT22;2586;48.710;9.202;2023-04-06T03:45:08;-1.10;1.00
5136;DHT22;2586;48.710;9.202;2023-04-06T03:47:34;-1.00;12.10
5136;DHT22;2586;48.710;9.202;2023-04-06T03:50:00;-0.90;1.00
5136;DHT22;2586;48.710;9.202;2023-04-06T03:52:26;-0.80;1.00
5136;DHT22;2586;48.710;9.202;2023-04-06T03:54:52;-0.70;99.90
5136;DHT22;2586;48.710;9.202;2023-04-06T03:57:17;-0.70;99.90
5136;DHT22;2586;48.710;9.202;2023-04-06T03:59:43;-0.70;99.90
5136;DHT22;2586;48.710;9.202;2023-04-06T04:02:08;-0.80;99.90
5136;DHT22;2586;48.710;9.202;2023-04-06T04:04:34;-0.80;99.90
5136;DHT22;2586;48.710;9.202;2023-04-06T04:07:00;-0.80;1.00
5136;DHT22;2586;48.710;9.202;2023-04-06T04:09:26;-0.70;1.00
5136;DHT22;2586;48.710;9.202;2023-04-06T04:11:51;-0.80;1.00
5136;DHT22;2586;48.710;9.202;2023-04-06T04:14:17;-0.70;1.00
5136;DHT22;2586;48.710;9.202;2023-04-06T04:16:42;-0.60;99.90
5136;DHT22;2586;48.710;9.202;2023-04-06T04:19:08;-0.60;1.00
5136;DHT22;2586;48.710;9.202;2023-04-06T04:21:33;-0.70;1.00
5136;DHT22;2586;48.710;9.202;2023-04-06T04:23:59;-0.70;1.00
5136;DHT22;2586;48.710;9.202;2023-04-06T04:26:25;-0.80;1.00
5136;DHT22;2586;48.710;9.202;2023-04-06T04:28:50;-0.80;1.00
5136;DHT22;2586;48.710;9.202;2023-04-06T04:31:16;-0.80;1.00
5136;DHT22;2586;48.710;9.202;2023-04-06T04:33:47;-0.80;1.00
5136;DHT22;2586;48.710;9.202;2023-04-06T04:36:12;-0.90;1.00
5136;DHT22;2586;48.710;9.202;2023-04-06T04:38:38;-0.90;1.00
5136;DHT22;2586;48.710;9.202;2023-04-06T04:41:03;-0.90;1.00
5136;DHT22;2586;48.710;9.202;2023-04-06T04:43:29;-0.90;1.00
5136;DHT22;2586;48.710;9.202;2023-04-06T04:45:55;-1.00;1.00
5136;DHT22;2586;48.710;9.202;2023-04-06T04:48:20;-1.00;1.00
5136;DHT22;2586;48.710;9.202;2023-04-06T04:50:46;-1.00;1.00
5136;DHT22;2586;48.710;9.202;2023-04-06T04:53:11;-1.00;1.00
5136;DHT22;2586;48.710;9.202;2023-04-06T04:55:37;-1.00;1.00
5136;DHT22;2586;48.710;9.202;2023-04-06T04:58:03;-1.00;1.00
5136;DHT22;2586;48.710;9.202;2023-04-06T05:00:28;-1.20;1.00
5136;DHT22;2586;48.710;9.202;2023-04-06T05:02:54;-1.40;99.90
5136;DHT22;2586;48.710;9.202;2023-04-06T05:05:20;-1.40;99.90
5136;DHT22;2586;48.710;9.202;2023-04-06T05:07:46;-1.30;99.90
5136;DHT22;2586;48.710;9.202;2023-04-06T05:10:11;-1.20;99.90
5136;DHT22;2586;48.710;9.202;2023-04-06T05:12:37;-1.10;99.90
5136;DHT22;2586;48.710;9.202;2023-04-06T05:15:03;-1.00;99.90
5136;DHT22;2586;48.710;9.202;2023-04-06T05:17:29;-1.00;1.00
5136;DHT22;2586;48.710;9.202;2023-04-06T05:19:55;-0.90;1.00
5136;DHT22;2586;48.710;9.202;2023-04-06T05:22:21;-0.90;1.00
5136;DHT22;2586;48.710;9.202;2023-04-06T05:24:46;-0.80;1.00
5136;DHT22;2586;48.710;9.202;2023-04-06T05:27:12;-0.70;1.00
5136;DHT22;2586;48.710;9.202;2023-04-06T05:29:37;-0.60;1.00
5136;DHT22;2586;48.710;9.202;2023-04-06T05:32:03;-0.60;1.00
5136;DHT22;2586;48.710;9.202;2023-04-06T05:34:29;-0.60;1.00
5136;DHT22;2586;48.710;9.202;2023-04-06T05:36:55;-0.70;1.00
5136;DHT22;2586;48.710;9.202;2023-04-06T05:39:20;-0.60;1.00
5136;DHT22;2586;48.710;9.202;2023-04-06T05:41:46;-0.60;1.00
5136;DHT22;2586;48.710;9.202;2023-04-06T05:44:11;-0.60;1.00
5136;DHT22;2586;48.710;9.202;2023-04-06T05:46:37;-0.60;1.00
5136;DHT22;2586;48.710;9.202;2023-04-06T05:49:03;-0.50;1.00
5136;DHT22;2586;48.710;9.202;2023-04-06T05:51:28;-0.40;1.00
5136;DHT22;2586;48.710;9.202;2023-04-06T05:53:54;-0.40;1.00
5136;DHT22;2586;48.710;9.202;2023-04-06T05:56:19;-0.30;99.90
5136;DHT22;2586;48.710;9.202;2023-04-06T05:58:46;-0.20;99.90
5136;DHT22;2586;48.710;9.202;2023-04-06T06:01:11;-0.10;99.90
5136;DHT22;2586;48.710;9.202;2023-04-06T06:03:37;-0.10;99.90
5136;DHT22;2586;48.710;9.202;2023-04-06T06:06:03;0.00;99.90
5136;DHT22;2586;48.710;9.202;2023-04-06T06:08:30;0.00;99.90
5136;DHT22;2586;48.710;9.202;2023-04-06T06:10:56;0.10;99.90
5136;DHT22;2586;48.710;9.202;2023-04-06T06:13:22;0.20;99.90
5136;DHT22;2586;48.710;9.202;2023-04-06T06:15:49;0.30;80.60
5136;DHT22;2586;48.710;9.202;2023-04-06T06:18:15;0.40;1.00
5136;DHT22;2586;48.710;9.202;2023-04-06T06:20:41;0.50;1.00
5136;DHT22;2586;48.710;9.202;2023-04-06T06:23:06;0.60;57.00
5136;DHT22;2586;48.710;9.202;2023-04-06T06:25:32;0.60;1.00
5136;DHT22;2586;48.710;9.202;2023-04-06T06:27:58;0.70;1.00
5136;DHT22;2586;48.710;9.202;2023-04-06T06:30:24;0.80;1.00
5136;DHT22;2586;48.710;9.202;2023-04-06T06:32:50;1.00;1.00
5136;DHT22;2586;48.710;9.202;2023-04-06T06:35:16;1.10;1.00
5136;DHT22;2586;48.710;9.202;2023-04-06T06:37:42;1.20;1.00
5136;DHT22;2586;48.710;9.202;2023-04-06T06:40:09;1.30;1.00
5136;DHT22;2586;48.710;9.202;2023-04-06T06:42:35;1.40;1.00
5136;DHT22;2586;48.710;9.202;2023-04-06T06:45:01;1.90;1.00
5136;DHT22;2586;48.710;9.202;2023-04-06T06:47:27;2.10;1.00
5136;DHT22;2586;48.710;9.202;2023-04-06T06:49:52;2.40;1.00
5136;DHT22;2586;48.710;9.202;2023-04-06T06:52:18;2.70;1.00
5136;DHT22;2586;48.710;9.202;2023-04-06T06:54:44;2.80;99.90
5136;DHT22;2586;48.710;9.202;2023-04-06T06:57:09;3.00;1.00
5136;DHT22;2586;48.710;9.202;2023-04-06T06:59:35;3.00;99.90
5136;DHT22;2586;48.710;9.202;2023-04-06T07:02:01;2.90;99.90
5136;DHT22;2586;48.710;9.202;2023-04-06T07:04:26;2.90;99.90
5136;DHT22;2586;48.710;9.202;2023-04-06T07:06:52;3.00;99.90
5136;DHT22;2586;48.710;9.202;2023-04-06T07:09:18;3.00;99.90
5136;DHT22;2586;48.710;9.202;2023-04-06T07:11:43;3.10;99.90
5136;DHT22;2586;48.710;9.202;2023-04-06T07:14:09;3.40;99.90
5136;DHT22;2586;48.710;9.202;2023-04-06T07:16:35;3.60;99.90
5136;DHT22;2586;48.710;9.202;2023-04-06T07:19:00;3.80;99.90
5136;DHT22;2586;48.710;9.202;2023-04-06T07:21:26;4.10;99.90
5136;DHT22;2586;48.710;9.202;2023-04-06T07:23:52;4.30;81.80
5136;DHT22;2586;48.710;9.202;2023-04-06T07:26:17;4.40;52.60
5136;DHT22;2586;48.710;9.202;2023-04-06T07:28:43;4.70;75.00
5136;DHT22;2586;48.710;9.202;2023-04-06T07:31:09;4.90;27.50
5136;DHT22;2586;48.710;9.202;2023-04-06T07:33:35;5.10;18.10
5136;DHT22;2586;48.710;9.202;2023-04-06T07:36:00;5.30;14.80
5136;DHT22;2586;48.710;9.202;2023-04-06T07:38:26;5.50;24.20
5136;DHT22;2586;48.710;9.202;2023-04-06T07:40:51;5.70;19.40
5136;DHT22;2586;48.710;9.202;2023-04-06T07:43:17;6.00;1.00
5136;DHT22;2586;48.710;9.202;2023-04-06T07:45:43;6.40;1.00
5136;DHT22;2586;48.710;9.202;2023-04-06T07:48:08;6.50;1.00
5136;DHT22;2586;48.710;9.202;2023-04-06T07:50:35;6.80;1.00
5136;DHT22;2586;48.710;9.202;2023-04-06T07:53:01;7.00;1.00
5136;DHT22;2586;48.710;9.202;2023-04-06T07:55:26;7.30;1.00
5136;DHT22;2586;48.710;9.202;2023-04-06T07:57:52;7.50;1.00
5136;DHT22;2586;48.710;9.202;2023-04-06T08:00:18;7.70;1.00
5136;DHT22;2586;48.710;9.202;2023-04-06T08:02:43;8.10;1.00
5136;DHT22;2586;48.710;9.202;2023-04-06T08:05:09;8.10;1.00
5136;DHT22;2586;48.710;9.202;2023-04-06T08:07:35;8.30;1.00
5136;DHT22;2586;48.710;9.202;2023-04-06T08:10:01;8.40;1.00
5136;DHT22;2586;48.710;9.202;2023-04-06T08:12:31;8.60;1.00
5136;DHT22;2586;48.710;9.202;2023-04-06T08:14:57;8.50;1.00
5136;DHT22;2586;48.710;9.202;2023-04-06T08:17:22;8.80;1.00
5136;DHT22;2586;48.710;9.202;2023-04-06T08:19:48;9.10;1.00
5136;DHT22;2586;48.710;9.202;2023-04-06T08:22:14;9.40;1.00
5136;DHT22;2586;48.710;9.202;2023-04-06T08:24:40;9.70;1.00
5136;DHT22;2586;48.710;9.202;2023-04-06T08:27:06;9.80;1.00
5136;DHT22;2586;48.710;9.202;2023-04-06T08:29:31;9.80;1.00
5136;DHT22;2586;48.710;9.202;2023-04-06T08:31:57;10.10;1.00
5136;DHT22;2586;48.710;9.202;2023-04-06T08:34:23;10.40;1.00
5136;DHT22;2586;48.710;9.202;2023-04-06T08:36:49;10.60;1.00
5136;DHT22;2586;48.710;9.202;2023-04-06T08:39:15;10.40;1.00
5136;DHT22;2586;48.710;9.202;2023-04-06T08:41:44;10.30;1.00
5136;DHT22;2586;48.710;9.202;2023-04-06T08:44:11;10.50;1.00
5136;DHT22;2586;48.710;9.202;2023-04-06T08:46:37;11.00;1.00
5136;DHT22;2586;48.710;9.202;2023-04-06T08:49:03;11.20;1.00
5136;DHT22;2586;48.710;9.202;2023-04-06T08:51:32;11.40;1.00
5136;DHT22;2586;48.710;9.202;2023-04-06T08:53:58;11.30;1.00
5136;DHT22;2586;48.710;9.202;2023-04-06T08:56:26;11.20;1.00
5136;DHT22;2586;48.710;9.202;2023-04-06T08:58:52;11.40;1.00
5136;DHT22;2586;48.710;9.202;2023-04-06T09:01:21;11.40;1.00
5136;DHT22;2586;48.710;9.202;2023-04-06T09:03:49;11.60;1.00
5136;DHT22;2586;48.710;9.202;2023-04-06T09:06:16;12.10;1.00
5136;DHT22;2586;48.710;9.202;2023-04-06T09:08:42;12.50;1.00
5136;DHT22;2586;48.710;9.202;2023-04-06T09:11:08;12.30;1.00
5136;DHT22;2586;48.710;9.202;2023-04-06T09:13:51;12.40;1.00
5136;DHT22;2586;48.710;9.202;2023-04-06T09:16:19;11.80;1.00
5136;DHT22;2586;48.710;9.202;2023-04-06T09:18:45;11.90;1.00
5136;DHT22;2586;48.710;9.202;2023-04-06T09:21:11;12.00;1.00
5136;DHT22;2586;48.710;9.202;2023-04-06T09:23:37;12.40;1.00
5136;DHT22;2586;48.710;9.202;2023-04-06T09:26:12;12.60;1.00
5136;DHT22;2586;48.710;9.202;2023-04-06T09:28:49;12.80;1.00
5136;DHT22;2586;48.710;9.202;2023-04-06T09:31:16;12.90;1.00
5136;DHT22;2586;48.710;9.202;2023-04-06T09:33:45;12.80;1.00
5136;DHT22;2586;48.710;9.202;2023-04-06T09:36:11;12.90;1.00
5136;DHT22;2586;48.710;9.202;2023-04-06T09:38:38;13.10;1.00
5136;DHT22;2586;48.710;9.202;2023-04-06T09:41:04;13.20;1.00
5136;DHT22;2586;48.710;9.202;2023-04-06T09:43:30;13.70;1.00
5136;DHT22;2586;48.710;9.202;2023-04-06T09:45:56;13.60;1.00
5136;DHT22;2586;48.710;9.202;2023-04-06T09:48:24;13.50;1.00
5136;DHT22;2586;48.710;9.202;2023-04-06T09:50:54;13.90;1.00
5136;DHT22;2586;48.710;9.202;2023-04-06T09:53:23;13.80;1.00
5136;DHT22;2586;48.710;9.202;2023-04-06T09:55:51;13.80;1.00
5136;DHT22;2586;48.710;9.202;2023-04-06T09:58:22;14.00;1.00
5136;DHT22;2586;48.710;9.202;2023-04-06T10:01:11;13.60;1.00
5136;DHT22;2586;48.710;9.202;2023-04-06T10:04:17;13.60;1.00
5136;DHT22;2586;48.710;9.202;2023-04-06T10:06:47;13.50;1.00
5136;DHT22;2586;48.710;9.202;2023-04-06T10:09:18;13.40;1.00
5136;DHT22;2586;48.710;9.202;2023-04-06T10:11:48;13.10;1.00
5136;DHT22;2586;48.710;9.202;2023-04-06T10:14:16;13.20;1.00
5136;DHT22;2586;48.710;9.202;2023-04-06T10:16:42;13.60;1.00
5136;DHT22;2586;48.710;9.202;2023-04-06T10:19:18;13.80;1.00
5136;DHT22;2586;48.710;9.202;2023-04-06T10:21:48;14.70;1.00
5136;DHT22;2586;48.710;9.202;2023-04-06T10:24:15;14.70;1.00
5136;DHT22;2586;48.710;9.202;2023-04-06T10:26:42;14.30;1.00
5136;DHT22;2586;48.710;9.202;2023-04-06T10:29:08;14.50;1.00
5136;DHT22;2586;48.710;9.202;2023-04-06T10:31:40;15.30;1.00
5136;DHT22;2586;48.710;9.202;2023-04-06T10:34:07;15.80;1.00
5136;DHT22;2586;48.710;9.202;2023-04-06T10:36:33;16.10;1.00
5136;DHT22;2586;48.710;9.202;2023-04-06T10:39:01;16.00;1.00
5136;DHT22;2586;48.710;9.202;2023-04-06T10:41:36;16.30;1.00
5136;DHT22;2586;48.710;9.202;2023-04-06T10:44:02;15.60;1.00
5136;DHT22;2586;48.710;9.202;2023-04-06T10:46:32;15.50;1.00
5136;DHT22;2586;48.710;9.202;2023-04-06T10:49:09;15.50;1.00
5136;DHT22;2586;48.710;9.202;2023-04-06T10:51:38;16.10;1.00
5136;DHT22;2586;48.710;9.202;2023-04-06T10:54:06;16.40;1.00
5136;DHT22;2586;48.710;9.202;2023-04-06T10:56:33;16.60;1.00
5136;DHT22;2586;48.710;9.202;2023-04-06T10:59:01;15.90;1.00
5136;DHT22;2586;48.710;9.202;2023-04-06T11:01:27;16.30;1.00
5136;DHT22;2586;48.710;9.202;2023-04-06T11:03:56;16.60;1.00
5136;DHT22;2586;48.710;9.202;2023-04-06T11:06:25;16.50;1.00
5136;DHT22;2586;48.710;9.202;2023-04-06T11:08:53;16.70;1.00
5136;DHT22;2586;48.710;9.202;2023-04-06T11:11:20;16.60;1.00
5136;DHT22;2586;48.710;9.202;2023-04-06T11:13:51;16.50;1.00
5136;DHT22;2586;48.710;9.202;2023-04-06T11:16:21;17.20;1.00
5136;DHT22;2586;48.710;9.202;2023-04-06T11:18:55;17.70;1.00
5136;DHT22;2586;48.710;9.202;2023-04-06T11:24:12;17.00;1.00
5136;DHT22;2586;48.710;9.202;2023-04-06T11:29:16;17.80;1.00
5136;DHT22;2586;48.710;9.202;2023-04-06T11:31:46;18.00;1.00
5136;DHT22;2586;48.710;9.202;2023-04-06T11:34:22;18.00;1.00
5136;DHT22;2586;48.710;9.202;2023-04-06T11:36:53;18.30;1.00
5136;DHT22;2586;48.710;9.202;2023-04-06T11:39:22;18.50;1.00
5136;DHT22;2586;48.710;9.202;2023-04-06T11:41:53;18.00;1.00
5136;DHT22;2586;48.710;9.202;2023-04-06T11:44:38;17.20;1.00
5136;DHT22;2586;48.710;9.202;2023-04-06T11:47:07;16.60;1.00
5136;DHT22;2586;48.710;9.202;2023-04-06T11:49:38;16.50;1.00
5136;DHT22;2586;48.710;9.202;2023-04-06T11:52:18;16.90;1.00
5136;DHT22;2586;48.710;9.202;2023-04-06T11:54:44;17.20;1.00
5136;DHT22;2586;48.710;9.202;2023-04-06T11:57:10;16.80;1.00
5136;DHT22;2586;48.710;9.202;2023-04-06T11:59:36;16.90;1.00
5136;DHT22;2586;48.710;9.202;2023-04-06T12:02:02;17.00;1.00
5136;DHT22;2586;48.710;9.202;2023-04-06T12:04:28;17.60;1.00
5136;DHT22;2586;48.710;9.202;2023-04-06T12:06:54;18.10;1.00
5136;DHT22;2586;48.710;9.202;2023-04-06T12:09:20;18.70;1.00
5136;DHT22;2586;48.710;9.202;2023-04-06T12:11:46;18.80;1.00
5136;DHT22;2586;48.710;9.202;2023-04-06T12:14:12;18.90;1.00
5136;DHT22;2586;48.710;9.202;2023-04-06T12:16:38;17.80;1.00
5136;DHT22;2586;48.710;9.202;2023-04-06T12:19:04;18.20;1.00
5136;DHT22;2586;48.710;9.202;2023-04-06T12:21:31;17.60;1.00
5136;DHT22;2586;48.710;9.202;2023-04-06T12:23:59;17.60;1.00
5136;DHT22;2586;48.710;9.202;2023-04-06T12:26:26;18.00;1.00
5136;DHT22;2586;48.710;9.202;2023-04-06T12:28:52;18.30;1.00
5136;DHT22;2586;48.710;9.202;2023-04-06T12:31:22;18.80;1.00
5136;DHT22;2586;48.710;9.202;2023-04-06T12:33:49;17.80;1.00
5136;DHT22;2586;48.710;9.202;2023-04-06T12:36:16;17.90;1.00
5136;DHT22;2586;48.710;9.202;2023-04-06T12:38:44;18.80;1.00
5136;DHT22;2586;48.710;9.202;2023-04-06T12:41:11;18.90;1.00
5136;DHT22;2586;48.710;9.202;2023-04-06T12:43:37;19.50;1.00
5136;DHT22;2586;48.710;9.202;2023-04-06T12:46:03;20.00;1.00
5136;DHT22;2586;48.710;9.202;2023-04-06T12:48:29;19.80;1.00
5136;DHT22;2586;48.710;9.202;2023-04-06T12:50:57;19.90;1.00
5136;DHT22;2586;48.710;9.202;2023-04-06T12:53:23;20.00;1.00
5136;DHT22;2586;48.710;9.202;2023-04-06T12:55:49;19.40;1.00
5136;DHT22;2586;48.710;9.202;2023-04-06T12:58:15;18.20;1.00
5136;DHT22;2586;48.710;9.202;2023-04-06T13:00:42;19.00;1.00
5136;DHT22;2586;48.710;9.202;2023-04-06T13:03:07;19.10;1.00
5136;DHT22;2586;48.710;9.202;2023-04-06T13:05:33;18.80;1.00
5136;DHT22;2586;48.710;9.202;2023-04-06T13:07:58;18.60;1.00
5136;DHT22;2586;48.710;9.202;2023-04-06T13:10:24;19.20;1.00
5136;DHT22;2586;48.710;9.202;2023-04-06T13:12:50;19.20;1.00
5136;DHT22;2586;48.710;9.202;2023-04-06T13:15:16;19.00;1.00
5136;DHT22;2586;48.710;9.202;2023-04-06T13:17:42;19.10;1.00
5136;DHT22;2586;48.710;9.202;2023-04-06T13:20:08;19.30;1.00
5136;DHT22;2586;48.710;9.202;2023-04-06T13:22:33;19.60;1.00
5136;DHT22;2586;48.710;9.202;2023-04-06T13:24:59;19.60;1.00
5136;DHT22;2586;48.710;9.202;2023-04-06T13:27:25;19.40;1.00
5136;DHT22;2586;48.710;9.202;2023-04-06T13:29:53;19.40;1.00
5136;DHT22;2586;48.710;9.202;2023-04-06T13:32:18;19.50;1.00
5136;DHT22;2586;48.710;9.202;2023-04-06T13:34:44;18.80;1.00
5136;DHT22;2586;48.710;9.202;2023-04-06T13:37:12;18.50;1.00
5136;DHT22;2586;48.710;9.202;2023-04-06T13:39:38;18.30;1.00
5136;DHT22;2586;48.710;9.202;2023-04-06T13:42:04;17.70;1.00
5136;DHT22;2586;48.710;9.202;2023-04-06T13:44:29;16.60;1.00
5136;DHT22;2586;48.710;9.202;2023-04-06T13:46:56;17.30;1.00
5136;DHT22;2586;48.710;9.202;2023-04-06T13:49:22;17.20;1.00
5136;DHT22;2586;48.710;9.202;2023-04-06T13:51:47;17.70;1.00
5136;DHT22;2586;48.710;9.202;2023-04-06T13:54:13;17.90;1.00
5136;DHT22;2586;48.710;9.202;2023-04-06T13:56:38;17.10;1.00
5136;DHT22;2586;48.710;9.202;2023-04-06T13:59:04;17.00;1.00
5136;DHT22;2586;48.710;9.202;2023-04-06T14:01:30;16.80;1.00
5136;DHT22;2586;48.710;9.202;2023-04-06T14:03:56;16.70;1.00
5136;DHT22;2586;48.710;9.202;2023-04-06T14:06:22;16.30;1.00
5136;DHT22;2586;48.710;9.202;2023-04-06T14:08:47;16.30;1.00
5136;DHT22;2586;48.710;9.202;2023-04-06T14:11:14;16.30;1.00
5136;DHT22;2586;48.710;9.202;2023-04-06T14:13:40;16.90;1.00
5136;DHT22;2586;48.710;9.202;2023-04-06T14:16:07;17.20;1.00
5136;DHT22;2586;48.710;9.202;2023-04-06T14:18:33;17.80;1.00
5136;DHT22;2586;48.710;9.202;2023-04-06T14:21:00;18.20;1.00
5136;DHT22;2586;48.710;9.202;2023-04-06T14:23:28;18.70;1.00
5136;DHT22;2586;48.710;9.202;2023-04-06T14:26:04;18.50;1.00
5136;DHT22;2586;48.710;9.202;2023-04-06T14:28:32;18.20;1.00
5136;DHT22;2586;48.710;9.202;2023-04-06T14:31:02;18.50;1.00
5136;DHT22;2586;48.710;9.202;2023-04-06T14:33:30;18.60;1.00
5136;DHT22;2586;48.710;9.202;2023-04-06T14:35:55;18.30;1.00
5136;DHT22;2586;48.710;9.202;2023-04-06T14:38:21;18.00;1.00
5136;DHT22;2586;48.710;9.202;2023-04-06T14:40:47;18.10;1.00
5136;DHT22;2586;48.710;9.202;2023-04-06T14:43:13;17.80;1.00
5136;DHT22;2586;48.710;9.202;2023-04-06T14:45:39;17.80;1.00
5136;DHT22;2586;48.710;9.202;2023-04-06T14:48:05;17.80;1.00
5136;DHT22;2586;48.710;9.202;2023-04-06T14:50:37;18.20;1.00
5136;DHT22;2586;48.710;9.202;2023-04-06T14:53:03;18.30;1.00
5136;DHT22;2586;48.710;9.202;2023-04-06T14:55:28;18.40;1.00
5136;DHT22;2586;48.710;9.202;2023-04-06T14:57:54;18.70;1.00
5136;DHT22;2586;48.710;9.202;2023-04-06T15:00:20;18.90;1.00
5136;DHT22;2586;48.710;9.202;2023-04-06T15:02:45;18.90;1.00
5136;DHT22;2586;48.710;9.202;2023-04-06T15:05:11;18.80;1.00
5136;DHT22;2586;48.710;9.202;2023-04-06T15:07:37;17.80;1.00
5136;DHT22;2586;48.710;9.202;2023-04-06T15:10:03;17.90;1.00
5136;DHT22;2586;48.710;9.202;2023-04-06T15:12:29;17.20;1.00
5136;DHT22;2586;48.710;9.202;2023-04-06T15:14:55;17.60;1.00
5136;DHT22;2586;48.710;9.202;2023-04-06T15:17:21;17.80;1.00
5136;DHT22;2586;48.710;9.202;2023-04-06T15:19:47;17.90;1.00
5136;DHT22;2586;48.710;9.202;2023-04-06T15:22:12;17.70;1.00
5136;DHT22;2586;48.710;9.202;2023-04-06T15:24:38;17.70;1.00
5136;DHT22;2586;48.710;9.202;2023-04-06T15:27:03;17.50;1.00
5136;DHT22;2586;48.710;9.202;2023-04-06T15:29:30;17.20;1.00
5136;DHT22;2586;48.710;9.202;2023-04-06T15:31:56;17.00;1.00
5136;DHT22;2586;48.710;9.202;2023-04-06T15:34:21;16.60;1.00
5136;DHT22;2586;48.710;9.202;2023-04-06T15:36:47;16.30;1.00
5136;DHT22;2586;48.710;9.202;2023-04-06T15:39:12;16.00;1.00
5136;DHT22;2586;48.710;9.202;2023-04-06T15:41:38;15.30;1.00
5136;DHT22;2586;48.710;9.202;2023-04-06T15:44:04;14.70;1.00
5136;DHT22;2586;48.710;9.202;2023-04-06T15:46:30;14.60;1.00
5136;DHT22;2586;48.710;9.202;2023-04-06T15:48:56;14.70;1.00
5136;DHT22;2586;48.710;9.202;2023-04-06T15:51:22;14.70;1.00
5136;DHT22;2586;48.710;9.202;2023-04-06T15:53:48;14.40;1.00
5136;DHT22;2586;48.710;9.202;2023-04-06T15:56:14;14.20;1.00
5136;DHT22;2586;48.710;9.202;2023-04-06T15:58:40;14.20;1.00
5136;DHT22;2586;48.710;9.202;2023-04-06T16:01:13;14.00;1.00
5136;DHT22;2586;48.710;9.202;2023-04-06T16:03:40;14.00;1.00
5136;DHT22;2586;48.710;9.202;2023-04-06T16:06:06;14.00;1.00
5136;DHT22;2586;48.710;9.202;2023-04-06T16:08:32;14.10;1.00
5136;DHT22;2586;48.710;9.202;2023-04-06T16:10:57;14.00;1.00
5136;DHT22;2586;48.710;9.202;2023-04-06T16:13:23;13.70;1.00
5136;DHT22;2586;48.710;9.202;2023-04-06T16:15:49;13.60;1.00
5136;DHT22;2586;48.710;9.202;2023-04-06T16:18:15;13.50;1.00
5136;DHT22;2586;48.710;9.202;2023-04-06T16:20:40;13.40;1.00